Alsace — PB4786 — position and weather

sailwx.info

Track history (hours):
 
Tides and Currents Weather Stations Pressure Air Temp Water Temp Dewpoint Dewpoint Depression Visibility Wind Speed Wind Dir Waves Ship Positions

Alsace

Last reported at 2014-Oct-30 17:33 UTC. Time now 2014-Oct-30 18:19 UTC.
Position N 51°54' E 005°40'.

Length 178 m.

Type: Ship. MMSI: 244660556.

Date/timePositionNaut miles runAvg speedWind from/ knotsBaromVisibWave heightAir tempDewpointWater temp
2014-Oct-30 17:33N 51°54' E 005°40'7 6.6
2014-Oct-30 16:33N 51°53' E 005°29'6 6.3
2014-Oct-30 15:33N 51°49' E 005°22'6 5.8
2014-Oct-30 14:33N 51°49' E 005°13'7 6.6
2014-Oct-30 13:33N 51°49' E 005°02'3 2.5
2014-Oct-30 12:33N 51°50' E 004°58'5 5.5
2014-Oct-30 11:33N 51°49' E 004°49'6 6.4
2014-Oct-30 10:33N 51°49' E 004°39'6 5.7
2014-Oct-30 09:33N 51°43' E 004°37'2 1.7
2014-Oct-30 08:14N 51°41' E 004°36'1 0.2
2014-Oct-30 05:33N 51°42' E 004°35'0 0.0
2014-Oct-30 04:33N 51°42' E 004°35'0 0.0
2014-Oct-30 03:34N 51°42' E 004°35'0 0.0
2014-Oct-30 02:33N 51°42' E 004°35'0 0.0
2014-Oct-30 01:33N 51°42' E 004°35'0 0.0
2014-Oct-30 00:33N 51°42' E 004°35'0 0.0
2014-Oct-29 23:34N 51°42' E 004°35'0 0.0
2014-Oct-29 22:33N 51°42' E 004°35'0 0.0
2014-Oct-29 21:33N 51°42' E 004°35'0 0.0
2014-Oct-29 20:33N 51°42' E 004°35'2 2.4
2014-Oct-29 19:32N 51°44' E 004°38'7 7.3
2014-Oct-29 18:33N 51°51' E 004°40'7 7.1
2014-Oct-29 17:33N 51°55' E 004°31'4 4.2
2014-Oct-29 16:33N 51°53' E 004°24'2 1.5
2014-Oct-29 15:33N 51°53' E 004°27'0 0.0
2014-Oct-29 14:33N 51°53' E 004°27'0 0.0
2014-Oct-29 13:33N 51°53' E 004°27'0 0.0
2014-Oct-29 12:33N 51°53' E 004°27'0 0.0
2014-Oct-29 11:33N 51°53' E 004°27'0 0.0
2014-Oct-29 10:33N 51°53' E 004°26'1 0.8
2014-Oct-29 09:33N 51°53' E 004°26'0 0.0
2014-Oct-29 08:33N 51°53' E 004°26'0 0.0
2014-Oct-29 07:33N 51°53' E 004°26'0 0.0
2014-Oct-29 06:33N 51°53' E 004°26'0 0.1
2014-Oct-29 05:33N 51°53' E 004°26'0 0.0
2014-Oct-29 04:34N 51°53' E 004°26'0 0.0
2014-Oct-29 03:33N 51°53' E 004°26'0 0.0
2014-Oct-29 02:33N 51°53' E 004°26'0 0.0
2014-Oct-29 01:33N 51°53' E 004°26'0 0.0
2014-Oct-29 00:33N 51°53' E 004°26'0 0.0
2014-Oct-28 23:33N 51°53' E 004°26'0 0.0
2014-Oct-28 22:33N 51°53' E 004°26'0 0.0
2014-Oct-28 21:33N 51°53' E 004°26'0 0.0
2014-Oct-28 20:33N 51°53' E 004°26'1 0.7
2014-Oct-28 19:33N 51°53' E 004°26'0 0.0
2014-Oct-28 18:33N 51°53' E 004°26'0 0.0
2014-Oct-28 17:33N 51°53' E 004°26'1 1.2
2014-Oct-28 16:33N 51°53' E 004°24'1 0.7
2014-Oct-28 15:33N 51°54' E 004°24'1 0.8
2014-Oct-28 14:33N 51°53' E 004°24'0 0.0
2014-Oct-28 13:33N 51°53' E 004°24'3 2.6
2014-Oct-28 12:33N 51°54' E 004°20'3 3.4
2014-Oct-28 11:34N 51°53' E 004°14'5 4.6
2014-Oct-28 10:33N 51°56' E 004°09'4 3.8
2014-Oct-28 09:33N 51°58' E 004°03'0 0.0
2014-Oct-28 08:33N 51°58' E 004°03'0 0.0
2014-Oct-28 07:33N 51°58' E 004°03'1 0.9
2014-Oct-28 06:33N 51°58' E 004°03'0 0.1
2014-Oct-28 05:33N 51°58' E 004°03'0 0.3
2014-Oct-28 04:33N 51°58' E 004°02'0 0.0
2014-Oct-28 03:33N 51°58' E 004°02'0 0.0
2014-Oct-28 02:33N 51°58' E 004°02'2 2.0
2014-Oct-28 01:33N 51°56' E 004°04'1 1.2
2014-Oct-28 00:31N 51°57' E 004°02'0 0.5
2014-Oct-27 23:32N 51°56' E 004°02'8 8.3
2014-Oct-27 22:33N 51°53' E 004°14'1010.2
2014-Oct-27 21:33N 51°50' E 004°30'9 9.3
2014-Oct-27 20:33N 51°49' E 004°45'9 8.7
2014-Oct-27 19:33N 51°49' E 004°59'10 9.7
2014-Oct-27 18:34N 51°49' E 005°15'9 8.8
2014-Oct-27 17:33N 51°53' E 005°27'14 1.5
2014-Oct-27 08:32N 51°52' E 005°50'0 0.1
2014-Oct-27 07:32N 51°52' E 005°50'0 0.0
2014-Oct-27 06:32N 51°52' E 005°50'0 0.0
2014-Oct-27 05:31N 51°52' E 005°50'0 0.0
2014-Oct-27 04:33N 51°52' E 005°50'0 0.1
2014-Oct-27 02:32N 51°52' E 005°50'0 0.0
2014-Oct-26 22:10N 51°52' E 005°50'44 5.4
2014-Oct-26 14:10N 51°21' E 006°39'4 7.3
2014-Oct-26 13:33N 51°17' E 006°43'6 5.7
2014-Oct-26 12:33N 51°12' E 006°44'5 5.3
2014-Oct-26 11:33N 51°09' E 006°51'124 7.2
2014-Oct-25 18:25N 49°23' E 008°30'7 7.6
2014-Oct-25 17:33N 49°16' E 008°27'10 9.8
2014-Oct-25 16:33N 49°07' E 008°22'1010.3
2014-Oct-25 15:33N 48°58' E 008°14'21 6.9
2014-Oct-25 12:31N 48°42' E 007°55'64 3.4
2014-Oct-24 17:27N 47°40' E 007°31'2 1.8
2014-Oct-24 16:33N 47°38' E 007°32'4 1.7
2014-Oct-24 14:21N 47°35' E 007°35'0 0.0
2014-Oct-24 13:30N 47°35' E 007°35'0 0.1
2014-Oct-24 12:20N 47°35' E 007°35'0 0.4
2014-Oct-24 11:33N 47°35' E 007°35'0 0.1
2014-Oct-24 10:32N 47°35' E 007°35'0 0.1
2014-Oct-24 08:15N 47°35' E 007°35'0 0.0
2014-Oct-24 07:33N 47°35' E 007°35'0 0.0
2014-Oct-24 06:33N 47°35' E 007°35'0 0.0
2014-Oct-24 05:33N 47°35' E 007°35'0 0.0
2014-Oct-24 04:26N 47°35' E 007°35'0 0.0
2014-Oct-24 03:30N 47°35' E 007°35'0 0.0
2014-Oct-24 02:30N 47°35' E 007°35'0 0.0
2014-Oct-24 01:33N 47°35' E 007°35'0 0.0
2014-Oct-24 00:32N 47°35' E 007°35'0 0.0
2014-Oct-23 23:21N 47°35' E 007°35'4 4.8
2014-Oct-23 22:29N 47°39' E 007°32'64 2.4
2014-Oct-22 19:31N 48°41' E 007°55'3 2.8
2014-Oct-22 18:33N 48°43' E 007°57'7 6.6
2014-Oct-22 17:32N 48°48' E 008°05'3 3.4
2014-Oct-22 16:33N 48°51' E 008°07'4 4.4
2014-Oct-22 15:32N 48°55' E 008°09'4 4.0
2014-Oct-22 14:33N 48°58' E 008°13'4 4.3
2014-Oct-22 13:33N 49°01' E 008°18'3 2.9
2014-Oct-22 12:33N 49°04' E 008°18'0 0.4
2014-Oct-22 11:34N 49°03' E 008°18'0 0.0
2014-Oct-22 10:34N 49°03' E 008°18'3 3.0
2014-Oct-22 09:33N 49°05' E 008°21'5 4.8
2014-Oct-22 08:33N 49°10' E 008°22'5 4.8
2014-Oct-22 07:33N 49°15' E 008°24'4 3.8
2014-Oct-22 06:23N 49°19' E 008°28'4 4.3
2014-Oct-22 05:33N 49°22' E 008°30'110 4.2
2014-Oct-21 03:17N 50°55' E 006°58'8 4.5
2014-Oct-21 01:27N 51°03' E 006°55'3 3.4
2014-Oct-21 00:26N 51°06' E 006°53'4 4.4
2014-Oct-20 23:33N 51°10' E 006°51'3 2.5
2014-Oct-20 22:33N 51°11' E 006°47'3 3.5
2014-Oct-20 21:33N 51°14' E 006°44'2 1.8
2014-Oct-20 20:33N 51°15' E 006°43'5 4.1
2014-Oct-20 19:27N 51°20' E 006°43'2 2.7
2014-Oct-20 18:31N 51°22' E 006°41'  
Track history (hours):
 
Tides and Currents Weather Stations Pressure Air Temp Water Temp Dewpoint Dewpoint Depression Visibility Wind Speed Wind Dir Waves Ship Positions

Alsace

Last reported at 2014-Oct-30 17:33 UTC. Time now 2014-Oct-30 18:19 UTC.
Position N 51°54' E 005°40'.

Length 178 m.

Type: Ship. MMSI: 244660556.

Date/timePositionNaut miles runAvg speedWind from/ knotsBaromVisibWave heightAir tempDewpointWater temp
2014-Oct-30 17:33N 51°54' E 005°40'7 6.6
2014-Oct-30 16:33N 51°53' E 005°29'6 6.3
2014-Oct-30 15:33N 51°49' E 005°22'6 5.8
2014-Oct-30 14:33N 51°49' E 005°13'7 6.6
2014-Oct-30 13:33N 51°49' E 005°02'3 2.5
2014-Oct-30 12:33N 51°50' E 004°58'5 5.5
2014-Oct-30 11:33N 51°49' E 004°49'6 6.4
2014-Oct-30 10:33N 51°49' E 004°39'6 5.7
2014-Oct-30 09:33N 51°43' E 004°37'2 1.7
2014-Oct-30 08:14N 51°41' E 004°36'1 0.2
2014-Oct-30 05:33N 51°42' E 004°35'0 0.0
2014-Oct-30 04:33N 51°42' E 004°35'0 0.0
2014-Oct-30 03:34N 51°42' E 004°35'0 0.0
2014-Oct-30 02:33N 51°42' E 004°35'0 0.0
2014-Oct-30 01:33N 51°42' E 004°35'0 0.0
2014-Oct-30 00:33N 51°42' E 004°35'0 0.0
2014-Oct-29 23:34N 51°42' E 004°35'0 0.0
2014-Oct-29 22:33N 51°42' E 004°35'0 0.0
2014-Oct-29 21:33N 51°42' E 004°35'0 0.0
2014-Oct-29 20:33N 51°42' E 004°35'2 2.4
2014-Oct-29 19:32N 51°44' E 004°38'7 7.3
2014-Oct-29 18:33N 51°51' E 004°40'7 7.1
2014-Oct-29 17:33N 51°55' E 004°31'4 4.2
2014-Oct-29 16:33N 51°53' E 004°24'2 1.5
2014-Oct-29 15:33N 51°53' E 004°27'0 0.0
2014-Oct-29 14:33N 51°53' E 004°27'0 0.0
2014-Oct-29 13:33N 51°53' E 004°27'0 0.0
2014-Oct-29 12:33N 51°53' E 004°27'0 0.0
2014-Oct-29 11:33N 51°53' E 004°27'0 0.0
2014-Oct-29 10:33N 51°53' E 004°26'1 0.8
2014-Oct-29 09:33N 51°53' E 004°26'0 0.0
2014-Oct-29 08:33N 51°53' E 004°26'0 0.0
2014-Oct-29 07:33N 51°53' E 004°26'0 0.0
2014-Oct-29 06:33N 51°53' E 004°26'0 0.1
2014-Oct-29 05:33N 51°53' E 004°26'0 0.0
2014-Oct-29 04:34N 51°53' E 004°26'0 0.0
2014-Oct-29 03:33N 51°53' E 004°26'0 0.0
2014-Oct-29 02:33N 51°53' E 004°26'0 0.0
2014-Oct-29 01:33N 51°53' E 004°26'0 0.0
2014-Oct-29 00:33N 51°53' E 004°26'0 0.0
2014-Oct-28 23:33N 51°53' E 004°26'0 0.0
2014-Oct-28 22:33N 51°53' E 004°26'0 0.0
2014-Oct-28 21:33N 51°53' E 004°26'0 0.0
2014-Oct-28 20:33N 51°53' E 004°26'1 0.7
2014-Oct-28 19:33N 51°53' E 004°26'0 0.0
2014-Oct-28 18:33N 51°53' E 004°26'0 0.0
2014-Oct-28 17:33N 51°53' E 004°26'1 1.2
2014-Oct-28 16:33N 51°53' E 004°24'1 0.7
2014-Oct-28 15:33N 51°54' E 004°24'1 0.8
2014-Oct-28 14:33N 51°53' E 004°24'0 0.0
2014-Oct-28 13:33N 51°53' E 004°24'3 2.6
2014-Oct-28 12:33N 51°54' E 004°20'3 3.4
2014-Oct-28 11:34N 51°53' E 004°14'5 4.6
2014-Oct-28 10:33N 51°56' E 004°09'4 3.8
2014-Oct-28 09:33N 51°58' E 004°03'0 0.0
2014-Oct-28 08:33N 51°58' E 004°03'0 0.0
2014-Oct-28 07:33N 51°58' E 004°03'1 0.9
2014-Oct-28 06:33N 51°58' E 004°03'0 0.1
2014-Oct-28 05:33N 51°58' E 004°03'0 0.3
2014-Oct-28 04:33N 51°58' E 004°02'0 0.0
2014-Oct-28 03:33N 51°58' E 004°02'0 0.0
2014-Oct-28 02:33N 51°58' E 004°02'2 2.0
2014-Oct-28 01:33N 51°56' E 004°04'1 1.2
2014-Oct-28 00:31N 51°57' E 004°02'0 0.5
2014-Oct-27 23:32N 51°56' E 004°02'8 8.3
2014-Oct-27 22:33N 51°53' E 004°14'1010.2
2014-Oct-27 21:33N 51°50' E 004°30'9 9.3
2014-Oct-27 20:33N 51°49' E 004°45'9 8.7
2014-Oct-27 19:33N 51°49' E 004°59'10 9.7
2014-Oct-27 18:34N 51°49' E 005°15'9 8.8
2014-Oct-27 17:33N 51°53' E 005°27'14 1.5
2014-Oct-27 08:32N 51°52' E 005°50'0 0.1
2014-Oct-27 07:32N 51°52' E 005°50'0 0.0
2014-Oct-27 06:32N 51°52' E 005°50'0 0.0
2014-Oct-27 05:31N 51°52' E 005°50'0 0.0
2014-Oct-27 04:33N 51°52' E 005°50'0 0.1
2014-Oct-27 02:32N 51°52' E 005°50'0 0.0
2014-Oct-26 22:10N 51°52' E 005°50'44 5.4
2014-Oct-26 14:10N 51°21' E 006°39'4 7.3
2014-Oct-26 13:33N 51°17' E 006°43'6 5.7
2014-Oct-26 12:33N 51°12' E 006°44'5 5.3
2014-Oct-26 11:33N 51°09' E 006°51'124 7.2
2014-Oct-25 18:25N 49°23' E 008°30'7 7.6
2014-Oct-25 17:33N 49°16' E 008°27'10 9.8
2014-Oct-25 16:33N 49°07' E 008°22'1010.3
2014-Oct-25 15:33N 48°58' E 008°14'21 6.9
2014-Oct-25 12:31N 48°42' E 007°55'64 3.4
2014-Oct-24 17:27N 47°40' E 007°31'2 1.8
2014-Oct-24 16:33N 47°38' E 007°32'4 1.7
2014-Oct-24 14:21N 47°35' E 007°35'0 0.0
2014-Oct-24 13:30N 47°35' E 007°35'0 0.1
2014-Oct-24 12:20N 47°35' E 007°35'0 0.4
2014-Oct-24 11:33N 47°35' E 007°35'0 0.1
2014-Oct-24 10:32N 47°35' E 007°35'0 0.1
2014-Oct-24 08:15N 47°35' E 007°35'0 0.0
2014-Oct-24 07:33N 47°35' E 007°35'0 0.0
2014-Oct-24 06:33N 47°35' E 007°35'0 0.0
2014-Oct-24 05:33N 47°35' E 007°35'0 0.0
2014-Oct-24 04:26N 47°35' E 007°35'0 0.0
2014-Oct-24 03:30N 47°35' E 007°35'0 0.0
2014-Oct-24 02:30N 47°35' E 007°35'0 0.0
2014-Oct-24 01:33N 47°35' E 007°35'0 0.0
2014-Oct-24 00:32N 47°35' E 007°35'0 0.0
2014-Oct-23 23:21N 47°35' E 007°35'4 4.8
2014-Oct-23 22:29N 47°39' E 007°32'64 2.4
2014-Oct-22 19:31N 48°41' E 007°55'3 2.8
2014-Oct-22 18:33N 48°43' E 007°57'7 6.6
2014-Oct-22 17:32N 48°48' E 008°05'3 3.4
2014-Oct-22 16:33N 48°51' E 008°07'4 4.4
2014-Oct-22 15:32N 48°55' E 008°09'4 4.0
2014-Oct-22 14:33N 48°58' E 008°13'4 4.3
2014-Oct-22 13:33N 49°01' E 008°18'3 2.9
2014-Oct-22 12:33N 49°04' E 008°18'0 0.4
2014-Oct-22 11:34N 49°03' E 008°18'0 0.0
2014-Oct-22 10:34N 49°03' E 008°18'3 3.0
2014-Oct-22 09:33N 49°05' E 008°21'5 4.8
2014-Oct-22 08:33N 49°10' E 008°22'5 4.8
2014-Oct-22 07:33N 49°15' E 008°24'4 3.8
2014-Oct-22 06:23N 49°19' E 008°28'4 4.3
2014-Oct-22 05:33N 49°22' E 008°30'110 4.2
2014-Oct-21 03:17N 50°55' E 006°58'8 4.5
2014-Oct-21 01:27N 51°03' E 006°55'3 3.4
2014-Oct-21 00:26N 51°06' E 006°53'4 4.4
2014-Oct-20 23:33N 51°10' E 006°51'3 2.5
2014-Oct-20 22:33N 51°11' E 006°47'3 3.5
2014-Oct-20 21:33N 51°14' E 006°44'2 1.8
2014-Oct-20 20:33N 51°15' E 006°43'5 4.1
2014-Oct-20 19:27N 51°20' E 006°43'2 2.7
2014-Oct-20 18:31N 51°22' E 006°41'  

Dump ship's entire track history